Time;durP1;ratioP1;P1;durP2;ratioP2;P2;SDS_P1;SDS_P2;PMS_P1;PMS_P2;Temp;Humidity;BMP_temperature;BMP_pressure;BME280_temperature;BME280_humidity;BME280_pressure;Samples;Min_cycle;Max_cycle;Signal;HPM_P1;HPM_P2
2021/01/13 00:00:45;;;;;;;;;;;18.50;35.70;;;;;;491537;240;1182;-54
2021/01/13 00:02:46;;;;;;;;;;;18.50;35.70;;;;;;491611;240;1042;-54
2021/01/13 00:04:48;;;;;;;;;;;18.50;35.70;;;;;;491613;240;2212;-54
2021/01/13 00:06:49;;;;;;;;;;;18.50;35.70;;;;;;491564;240;1220;-54
2021/01/13 00:08:50;;;;;;;;;;;18.50;35.80;;;;;;491687;240;1263;-53
2021/01/13 00:10:52;;;;;;;;;;;18.50;35.80;;;;;;491572;240;1281;-54
2021/01/13 00:12:53;;;;;;;;;;;18.50;35.80;;;;;;491699;240;1437;-54
2021/01/13 00:14:54;;;;;;;;;;;18.50;35.80;;;;;;491591;240;1015;-54
2021/01/13 00:16:56;;;;;;;;;;;18.40;35.80;;;;;;491604;240;1186;-54
2021/01/13 00:18:57;;;;;;;;;;;18.40;35.80;;;;;;491676;240;1079;-54
2021/01/13 00:20:58;;;;;;;;;;;18.40;35.70;;;;;;491626;240;1081;-54
2021/01/13 00:23:00;;;;;;;;;;;18.40;35.80;;;;;;491571;240;1182;-54
2021/01/13 00:25:01;;;;;;;;;;;18.40;35.80;;;;;;491566;240;2176;-54
2021/01/13 00:27:03;;;;;;;;;;;18.40;35.80;;;;;;491542;240;1201;-54
2021/01/13 00:29:04;;;;;;;;;;;18.40;35.80;;;;;;491639;240;1115;-54
2021/01/13 00:31:05;;;;;;;;;;;18.40;35.80;;;;;;491713;240;970;-54
2021/01/13 00:33:06;;;;;;;;;;;18.40;35.80;;;;;;491489;240;1114;-54
2021/01/13 00:35:08;;;;;;;;;;;18.40;35.90;;;;;;491597;240;1051;-54
2021/01/13 00:37:09;;;;;;;;;;;18.40;35.80;;;;;;491547;240;1012;-53
2021/01/13 00:39:10;;;;;;;;;;;18.40;35.80;;;;;;491652;240;1180;-54
2021/01/13 00:41:12;;;;;;;;;;;18.40;35.80;;;;;;491540;240;1053;-54
2021/01/13 00:43:13;;;;;;;;;;;18.30;35.80;;;;;;491689;240;1036;-54
2021/01/13 00:45:15;;;;;;;;;;;18.40;35.80;;;;;;491715;240;2133;-54
2021/01/13 00:47:16;;;;;;;;;;;18.40;35.90;;;;;;491723;240;1144;-54
2021/01/13 00:49:17;;;;;;;;;;;18.30;35.90;;;;;;491714;240;1007;-54
2021/01/13 00:51:18;;;;;;;;;;;18.30;35.90;;;;;;491699;240;1005;-54
2021/01/13 00:53:20;;;;;;;;;;;18.30;35.80;;;;;;491575;240;1206;-54
2021/01/13 00:55:21;;;;;;;;;;;18.40;35.80;;;;;;491661;240;1222;-54
2021/01/13 00:57:22;;;;;;;;;;;18.40;34.40;;;;;;491559;240;1179;-54
2021/01/13 00:59:24;;;;;;;;;;;18.40;35.70;;;;;;491670;240;1250;-54
2021/01/13 01:01:26;;;;;;;;;;;18.40;35.60;;;;;;491519;240;1157;-54
2021/01/13 01:03:27;;;;;;;;;;;18.40;35.60;;;;;;491617;240;1244;-54
2021/01/13 01:05:28;;;;;;;;;;;18.50;35.60;;;;;;491539;240;2169;-54
2021/01/13 01:07:30;;;;;;;;;;;18.50;35.60;;;;;;491594;240;1148;-54
2021/01/13 01:09:31;;;;;;;;;;;18.50;35.60;;;;;;491797;240;1181;-54
2021/01/13 01:11:33;;;;;;;;;;;18.50;35.50;;;;;;491515;240;1218;-54
2021/01/13 01:13:34;;;;;;;;;;;18.50;35.50;;;;;;491671;240;1077;-54
2021/01/13 01:15:35;;;;;;;;;;;18.60;35.50;;;;;;491526;240;1433;-54
2021/01/13 01:17:36;;;;;;;;;;;18.50;35.50;;;;;;491575;240;1163;-54
2021/01/13 01:19:38;;;;;;;;;;;18.60;35.50;;;;;;491638;240;1323;-54
2021/01/13 01:21:39;;;;;;;;;;;18.60;35.40;;;;;;491502;240;1721;-54
2021/01/13 01:23:40;;;;;;;;;;;18.60;35.40;;;;;;491887;240;1109;-53
2021/01/13 01:25:42;;;;;;;;;;;18.60;35.40;;;;;;491495;240;2192;-53
2021/01/13 01:27:43;;;;;;;;;;;18.60;35.30;;;;;;491629;240;946;-54
2021/01/13 01:29:44;;;;;;;;;;;18.60;35.30;;;;;;491609;240;1277;-54
2021/01/13 01:31:45;;;;;;;;;;;18.70;35.40;;;;;;491632;240;932;-54
2021/01/13 01:33:47;;;;;;;;;;;18.70;35.30;;;;;;491589;240;1050;-54
2021/01/13 01:35:48;;;;;;;;;;;18.70;35.30;;;;;;491663;240;1116;-54
2021/01/13 01:37:49;;;;;;;;;;;18.70;35.30;;;;;;491895;240;1057;-54
2021/01/13 01:39:51;;;;;;;;;;;18.70;35.20;;;;;;491659;240;1149;-54
2021/01/13 01:41:52;;;;;;;;;;;18.80;35.30;;;;;;491643;240;1016;-54
2021/01/13 01:43:53;;;;;;;;;;;18.80;35.20;;;;;;491649;240;1185;-54
2021/01/13 01:45:55;;;;;;;;;;;18.80;35.20;;;;;;491578;240;2196;-55
2021/01/13 01:47:56;;;;;;;;;;;18.80;35.20;;;;;;491723;240;1184;-54
2021/01/13 01:49:57;;;;;;;;;;;18.80;35.10;;;;;;491619;240;1209;-54
2021/01/13 01:51:58;;;;;;;;;;;18.80;35.10;;;;;;491668;240;1130;-54
2021/01/13 01:54:00;;;;;;;;;;;18.90;35.20;;;;;;491641;240;1278;-54
2021/01/13 01:56:01;;;;;;;;;;;18.90;35.10;;;;;;491759;240;1138;-54
2021/01/13 01:58:02;;;;;;;;;;;18.90;33.80;;;;;;491618;240;1200;-54
2021/01/13 02:00:04;;;;;;;;;;;18.90;35.10;;;;;;491709;240;1191;-54
2021/01/13 02:02:05;;;;;;;;;;;18.90;35.10;;;;;;491550;242;2346;-54
2021/01/13 02:04:06;;;;;;;;;;;18.90;35.00;;;;;;491610;240;1269;-54
2021/01/13 02:06:07;;;;;;;;;;;18.90;35.00;;;;;;491516;240;2192;-54
2021/01/13 02:08:09;;;;;;;;;;;18.90;35.00;;;;;;491655;240;1060;-54
2021/01/13 02:10:10;;;;;;;;;;;19.00;35.10;;;;;;491616;240;1156;-54
2021/01/13 02:12:11;;;;;;;;;;;19.00;35.10;;;;;;491632;240;1069;-54
2021/01/13 02:14:13;;;;;;;;;;;19.00;35.00;;;;;;491669;239;1349;-54
2021/01/13 02:16:14;;;;;;;;;;;19.00;35.00;;;;;;491792;240;1117;-54
2021/01/13 02:18:15;;;;;;;;;;;19.00;35.00;;;;;;491607;240;1022;-54
2021/01/13 02:20:16;;;;;;;;;;;19.00;35.00;;;;;;491695;240;1073;-54
2021/01/13 02:22:18;;;;;;;;;;;19.00;34.90;;;;;;491630;240;1145;-53
2021/01/13 02:24:19;;;;;;;;;;;19.10;35.00;;;;;;491763;240;1256;-54
2021/01/13 02:26:20;;;;;;;;;;;19.10;34.90;;;;;;491528;240;2217;-54
2021/01/13 02:28:22;;;;;;;;;;;19.10;35.00;;;;;;491604;240;1046;-54
2021/01/13 02:30:23;;;;;;;;;;;19.10;34.90;;;;;;491576;240;1036;-54
2021/01/13 02:32:24;;;;;;;;;;;19.10;34.90;;;;;;491683;240;1222;-54
2021/01/13 02:34:25;;;;;;;;;;;19.10;34.80;;;;;;491831;240;1010;-54
2021/01/13 02:36:27;;;;;;;;;;;19.10;34.90;;;;;;491584;240;1064;-54
2021/01/13 02:38:28;;;;;;;;;;;19.10;34.80;;;;;;491826;240;1057;-54
2021/01/13 02:40:29;;;;;;;;;;;19.10;34.80;;;;;;491586;240;1201;-54
2021/01/13 02:42:30;;;;;;;;;;;19.10;34.80;;;;;;491608;240;978;-54
2021/01/13 02:44:32;;;;;;;;;;;19.10;34.80;;;;;;491782;240;1046;-54
2021/01/13 02:46:33;;;;;;;;;;;19.20;34.90;;;;;;491676;240;2185;-53
2021/01/13 02:48:34;;;;;;;;;;;19.20;34.80;;;;;;491717;240;1020;-54
2021/01/13 02:50:36;;;;;;;;;;;19.20;34.80;;;;;;491593;240;1053;-54
2021/01/13 02:52:37;;;;;;;;;;;19.20;34.80;;;;;;491621;240;961;-54
2021/01/13 02:54:38;;;;;;;;;;;19.20;34.80;;;;;;491641;238;1284;-54
2021/01/13 02:56:39;;;;;;;;;;;19.20;34.80;;;;;;491569;240;1241;-55
2021/01/13 02:58:41;;;;;;;;;;;19.30;34.80;;;;;;491608;240;1044;-53
2021/01/13 03:00:42;;;;;;;;;;;19.20;34.70;;;;;;491584;240;1055;-54
2021/01/13 03:02:43;;;;;;;;;;;19.30;34.80;;;;;;491564;240;1092;-54
2021/01/13 03:04:44;;;;;;;;;;;19.30;34.70;;;;;;491543;240;965;-53
2021/01/13 03:06:46;;;;;;;;;;;19.30;34.70;;;;;;491591;240;2195;-54
2021/01/13 03:08:47;;;;;;;;;;;19.30;34.70;;;;;;491524;242;1156;-55
2021/01/13 03:10:48;;;;;;;;;;;19.30;34.70;;;;;;491547;240;1185;-54
2021/01/13 03:12:50;;;;;;;;;;;19.30;34.70;;;;;;491605;240;1105;-54
2021/01/13 03:14:51;;;;;;;;;;;19.30;34.70;;;;;;491685;240;1069;-54
2021/01/13 03:16:52;;;;;;;;;;;19.30;34.70;;;;;;491455;240;1282;-54
2021/01/13 03:18:53;;;;;;;;;;;19.30;34.70;;;;;;491775;240;1110;-54
2021/01/13 03:20:55;;;;;;;;;;;19.30;34.60;;;;;;491578;240;1100;-54
2021/01/13 03:22:56;;;;;;;;;;;19.30;34.60;;;;;;491607;240;1238;-54
2021/01/13 03:24:57;;;;;;;;;;;19.30;34.60;;;;;;491610;238;1306;-54
2021/01/13 03:26:59;;;;;;;;;;;19.40;34.70;;;;;;491502;240;2168;-54
2021/01/13 03:29:00;;;;;;;;;;;19.40;34.70;;;;;;491594;240;989;-54
2021/01/13 03:31:01;;;;;;;;;;;19.40;34.60;;;;;;491769;240;1304;-54
2021/01/13 03:33:02;;;;;;;;;;;19.40;34.60;;;;;;491647;240;1133;-54
2021/01/13 03:35:04;;;;;;;;;;;19.40;34.60;;;;;;491563;240;1147;-54
2021/01/13 03:37:05;;;;;;;;;;;19.40;33.30;;;;;;491501;240;1176;-54
2021/01/13 03:39:06;;;;;;;;;;;19.40;34.60;;;;;;491652;240;1052;-54
2021/01/13 03:41:07;;;;;;;;;;;19.40;34.60;;;;;;491459;240;1216;-54
2021/01/13 03:43:09;;;;;;;;;;;19.40;34.60;;;;;;491580;240;1227;-54
2021/01/13 03:45:10;;;;;;;;;;;19.40;34.60;;;;;;491607;240;1212;-54
2021/01/13 03:47:11;;;;;;;;;;;19.40;34.60;;;;;;491517;240;2141;-54
2021/01/13 03:49:13;;;;;;;;;;;19.40;34.60;;;;;;491573;240;1060;-54
2021/01/13 03:51:14;;;;;;;;;;;19.40;34.60;;;;;;491649;240;1198;-54
2021/01/13 03:53:15;;;;;;;;;;;19.40;34.60;;;;;;491592;240;1227;-54
2021/01/13 03:55:16;;;;;;;;;;;19.40;34.50;;;;;;491636;240;1089;-54
2021/01/13 03:57:18;;;;;;;;;;;19.50;34.60;;;;;;491651;240;1342;-54
2021/01/13 03:59:19;;;;;;;;;;;19.50;34.60;;;;;;491741;240;1208;-54
2021/01/13 04:01:20;;;;;;;;;;;19.50;34.50;;;;;;491666;240;1014;-54
2021/01/13 04:03:22;;;;;;;;;;;19.50;34.60;;;;;;491568;240;1472;-55
2021/01/13 04:05:23;;;;;;;;;;;19.50;34.50;;;;;;491624;240;1024;-54
2021/01/13 04:07:25;;;;;;;;;;;19.50;34.50;;;;;;491541;240;2192;-54
2021/01/13 04:09:26;;;;;;;;;;;19.50;34.50;;;;;;491675;240;1144;-54
2021/01/13 04:11:28;;;;;;;;;;;19.50;34.50;;;;;;491663;240;1167;-54
2021/01/13 04:13:29;;;;;;;;;;;19.50;34.50;;;;;;491684;240;1299;-54
2021/01/13 04:15:30;;;;;;;;;;;19.50;34.50;;;;;;491743;240;1038;-54
2021/01/13 04:17:31;;;;;;;;;;;19.50;34.50;;;;;;491613;240;942;-54
2021/01/13 04:19:33;;;;;;;;;;;19.50;34.50;;;;;;491614;240;1078;-54
2021/01/13 04:21:34;;;;;;;;;;;19.50;34.50;;;;;;491600;240;1076;-54
2021/01/13 04:23:35;;;;;;;;;;;19.60;34.60;;;;;;491670;240;1057;-53
2021/01/13 04:25:37;;;;;;;;;;;19.60;34.50;;;;;;491608;240;1162;-54
2021/01/13 04:27:38;;;;;;;;;;;19.60;34.50;;;;;;491621;240;2113;-54
2021/01/13 04:29:39;;;;;;;;;;;19.50;34.40;;;;;;491824;240;1061;-54
2021/01/13 04:31:40;;;;;;;;;;;19.50;34.40;;;;;;491580;240;1050;-54
2021/01/13 04:33:42;;;;;;;;;;;19.60;34.50;;;;;;491681;240;1061;-54
2021/01/13 04:35:43;;;;;;;;;;;19.60;34.50;;;;;;491706;240;1223;-54
2021/01/13 04:37:44;;;;;;;;;;;19.60;34.50;;;;;;491604;240;1053;-54
2021/01/13 04:39:45;;;;;;;;;;;19.60;34.50;;;;;;491616;240;1138;-54
2021/01/13 04:41:47;;;;;;;;;;;19.60;34.50;;;;;;491561;240;1397;-54
2021/01/13 04:43:48;;;;;;;;;;;19.60;34.50;;;;;;491834;240;972;-54
2021/01/13 04:45:49;;;;;;;;;;;19.60;34.50;;;;;;491565;240;2149;-53
2021/01/13 04:47:50;;;;;;;;;;;19.60;34.50;;;;;;491559;240;1317;-54
2021/01/13 04:49:52;;;;;;;;;;;19.60;34.50;;;;;;491603;240;1071;-54
2021/01/13 04:51:53;;;;;;;;;;;19.60;34.50;;;;;;491568;240;1183;-54
2021/01/13 04:53:54;;;;;;;;;;;19.60;34.50;;;;;;491666;240;1144;-54
2021/01/13 04:55:56;;;;;;;;;;;19.60;34.50;;;;;;491574;239;1311;-54
2021/01/13 04:57:57;;;;;;;;;;;19.60;34.50;;;;;;491611;240;1223;-54
2021/01/13 04:59:58;;;;;;;;;;;19.60;34.40;;;;;;491604;240;1042;-55
2021/01/13 05:02:00;;;;;;;;;;;19.60;34.40;;;;;;491636;240;1125;-54
2021/01/13 05:04:01;;;;;;;;;;;19.70;33.10;;;;;;491596;240;1129;-54
2021/01/13 05:06:02;;;;;;;;;;;19.60;34.40;;;;;;491577;240;2188;-54
2021/01/13 05:08:03;;;;;;;;;;;19.60;34.40;;;;;;491595;240;1157;-54
2021/01/13 05:10:05;;;;;;;;;;;19.60;34.40;;;;;;491655;240;989;-54
2021/01/13 05:12:06;;;;;;;;;;;19.70;34.40;;;;;;491802;240;1262;-54
2021/01/13 05:14:07;;;;;;;;;;;19.70;34.40;;;;;;491598;240;1360;-55
2021/01/13 05:16:08;;;;;;;;;;;19.70;34.40;;;;;;491526;240;1027;-54
2021/01/13 05:18:10;;;;;;;;;;;19.70;34.40;;;;;;491600;240;1001;-54
2021/01/13 05:20:11;;;;;;;;;;;19.70;34.40;;;;;;491909;240;963;-54
2021/01/13 05:22:12;;;;;;;;;;;19.70;34.40;;;;;;491647;240;1086;-54
2021/01/13 05:24:14;;;;;;;;;;;19.70;34.40;;;;;;491501;240;966;-54
2021/01/13 05:26:15;;;;;;;;;;;19.70;34.40;;;;;;491490;240;2136;-54
2021/01/13 05:28:16;;;;;;;;;;;19.70;34.40;;;;;;491558;240;982;-54
2021/01/13 05:30:17;;;;;;;;;;;19.70;34.40;;;;;;491611;240;1017;-54
2021/01/13 05:32:19;;;;;;;;;;;19.70;34.40;;;;;;491526;240;1129;-54
2021/01/13 05:34:20;;;;;;;;;;;19.70;34.40;;;;;;491549;240;1066;-54
2021/01/13 05:36:21;;;;;;;;;;;19.70;34.40;;;;;;491421;240;1374;-54
2021/01/13 05:38:22;;;;;;;;;;;19.70;34.40;;;;;;491495;240;1037;-54
2021/01/13 05:40:24;;;;;;;;;;;19.70;34.40;;;;;;491537;240;1070;-54
2021/01/13 05:42:25;;;;;;;;;;;19.70;34.40;;;;;;491449;240;1171;-54
2021/01/13 05:44:26;;;;;;;;;;;19.70;34.40;;;;;;491529;240;1165;-54
2021/01/13 05:46:28;;;;;;;;;;;19.80;34.50;;;;;;491462;240;2133;-54
2021/01/13 05:48:29;;;;;;;;;;;19.80;34.40;;;;;;491535;240;1068;-54
2021/01/13 05:50:30;;;;;;;;;;;19.80;34.40;;;;;;491494;240;1151;-54
2021/01/13 05:52:31;;;;;;;;;;;19.80;34.50;;;;;;491562;240;1162;-54
2021/01/13 05:54:33;;;;;;;;;;;19.70;34.40;;;;;;491502;240;1251;-54
2021/01/13 05:56:34;;;;;;;;;;;19.80;34.40;;;;;;491427;240;1100;-54
2021/01/13 05:58:35;;;;;;;;;;;19.70;34.30;;;;;;491403;240;1273;-54
2021/01/13 06:00:37;;;;;;;;;;;19.70;34.30;;;;;;491531;240;1250;-54
2021/01/13 06:02:38;;;;;;;;;;;19.70;34.30;;;;;;491458;240;1341;-54
2021/01/13 06:04:39;;;;;;;;;;;19.80;34.40;;;;;;491284;240;1164;-54
2021/01/13 06:06:41;;;;;;;;;;;19.80;34.40;;;;;;491360;240;2128;-54
2021/01/13 06:08:42;;;;;;;;;;;19.80;34.40;;;;;;491378;240;973;-54
2021/01/13 06:10:43;;;;;;;;;;;19.80;34.40;;;;;;491319;240;1149;-54
2021/01/13 06:12:45;;;;;;;;;;;19.80;34.40;;;;;;491320;240;1361;-54
2021/01/13 06:14:46;;;;;;;;;;;19.80;34.30;;;;;;491441;240;1082;-54
2021/01/13 06:16:47;;;;;;;;;;;19.80;33.00;;;;;;491355;240;1242;-54
2021/01/13 06:18:49;;;;;;;;;;;19.80;34.30;;;;;;491454;240;1207;-54
2021/01/13 06:20:50;;;;;;;;;;;19.80;34.30;;;;;;491434;240;1164;-55
2021/01/13 06:22:51;;;;;;;;;;;19.80;34.30;;;;;;491327;240;1187;-54
2021/01/13 06:24:52;;;;;;;;;;;19.80;34.30;;;;;;491386;240;1058;-54
2021/01/13 06:26:54;;;;;;;;;;;19.80;34.30;;;;;;491343;240;2180;-54
2021/01/13 06:28:55;;;;;;;;;;;19.80;34.30;;;;;;491247;240;1227;-53
2021/01/13 06:30:56;;;;;;;;;;;19.80;34.30;;;;;;491396;240;1052;-54
2021/01/13 06:32:58;;;;;;;;;;;19.80;34.30;;;;;;491302;240;1315;-53
2021/01/13 06:34:59;;;;;;;;;;;19.80;33.00;;;;;;491421;240;1181;-54
2021/01/13 06:37:00;;;;;;;;;;;19.80;34.30;;;;;;491332;240;1080;-54
2021/01/13 06:39:02;;;;;;;;;;;19.80;34.30;;;;;;491404;240;1017;-53
2021/01/13 06:41:03;;;;;;;;;;;19.80;34.30;;;;;;491272;240;1151;-54
2021/01/13 06:43:04;;;;;;;;;;;19.90;34.30;;;;;;491346;240;1164;-54
2021/01/13 06:45:06;;;;;;;;;;;19.80;34.30;;;;;;491254;240;1065;-54
2021/01/13 06:47:07;;;;;;;;;;;19.90;34.30;;;;;;491134;240;2179;-54
2021/01/13 06:49:08;;;;;;;;;;;19.90;33.00;;;;;;491198;240;1025;-54
2021/01/13 06:51:10;;;;;;;;;;;19.90;34.30;;;;;;491224;240;1071;-54
2021/01/13 06:53:11;;;;;;;;;;;19.90;34.30;;;;;;491380;240;1153;-54
2021/01/13 06:55:12;;;;;;;;;;;19.80;34.30;;;;;;491364;240;1081;-54
2021/01/13 06:57:14;;;;;;;;;;;19.90;34.30;;;;;;491227;240;1212;-54
2021/01/13 06:59:15;;;;;;;;;;;19.90;34.30;;;;;;491204;240;1198;-54
2021/01/13 07:01:16;;;;;;;;;;;19.90;34.30;;;;;;491108;240;1081;-54
2021/01/13 07:03:18;;;;;;;;;;;19.90;34.30;;;;;;491142;240;1044;-54
2021/01/13 07:05:19;;;;;;;;;;;19.90;34.30;;;;;;491167;240;975;-54
2021/01/13 07:07:20;;;;;;;;;;;19.90;34.30;;;;;;491108;240;2149;-54
2021/01/13 07:09:22;;;;;;;;;;;19.90;34.30;;;;;;491233;240;1075;-54
2021/01/13 07:11:24;;;;;;;;;;;19.90;34.30;;;;;;491121;240;1050;-54
2021/01/13 07:13:24;;;;;;;;;;;19.90;34.30;;;;;;491237;241;1422;-54
2021/01/13 07:15:25;;;;;;;;;;;19.90;34.30;;;;;;491035;240;998;-54
2021/01/13 07:17:27;;;;;;;;;;;19.90;34.30;;;;;;491169;240;1178;-54
2021/01/13 07:19:28;;;;;;;;;;;19.90;34.30;;;;;;491171;240;1195;-54
2021/01/13 07:21:29;;;;;;;;;;;19.90;34.30;;;;;;491167;240;1039;-54
2021/01/13 07:23:30;;;;;;;;;;;19.90;34.30;;;;;;491147;240;1281;-54
2021/01/13 07:25:32;;;;;;;;;;;19.90;34.30;;;;;;491094;240;1262;-54
2021/01/13 07:27:33;;;;;;;;;;;19.90;34.30;;;;;;491072;240;2237;-54
2021/01/13 07:29:34;;;;;;;;;;;19.90;34.30;;;;;;491003;240;1183;-53
2021/01/13 07:31:36;;;;;;;;;;;19.90;34.30;;;;;;490751;240;1152;-54
2021/01/13 07:33:37;;;;;;;;;;;19.90;34.30;;;;;;491099;240;1178;-54
2021/01/13 07:35:38;;;;;;;;;;;19.90;34.30;;;;;;491134;240;1497;-53
2021/01/13 07:37:39;;;;;;;;;;;19.90;34.30;;;;;;491211;240;1235;-54
2021/01/13 07:39:41;;;;;;;;;;;19.90;34.20;;;;;;491087;240;1076;-54
2021/01/13 07:41:42;;;;;;;;;;;20.00;34.30;;;;;;490972;240;1117;-54
2021/01/13 07:43:44;;;;;;;;;;;20.00;34.30;;;;;;491008;238;1279;-53
2021/01/13 07:45:45;;;;;;;;;;;19.90;34.20;;;;;;490992;240;1170;-54
2021/01/13 07:47:46;;;;;;;;;;;20.00;32.90;;;;;;491043;240;2175;-54
2021/01/13 07:49:47;;;;;;;;;;;19.90;34.20;;;;;;491202;240;1077;-54
2021/01/13 07:51:49;;;;;;;;;;;20.00;34.50;;;;;;491098;240;1127;-53
2021/01/13 07:53:50;;;;;;;;;;;20.00;32.90;;;;;;490889;240;1139;-54
2021/01/13 07:55:51;;;;;;;;;;;20.00;34.10;;;;;;490958;240;1221;-54
2021/01/13 07:57:53;;;;;;;;;;;20.00;34.10;;;;;;490890;240;1175;-54
2021/01/13 07:59:54;;;;;;;;;;;20.00;34.20;;;;;;490892;240;1189;-54
2021/01/13 08:01:55;;;;;;;;;;;20.00;34.30;;;;;;490857;240;1259;-54
2021/01/13 08:03:57;;;;;;;;;;;19.90;34.30;;;;;;490807;240;1161;-54
2021/01/13 08:05:58;;;;;;;;;;;19.90;34.40;;;;;;490800;240;1345;-53
2021/01/13 08:07:59;;;;;;;;;;;19.80;34.50;;;;;;490932;240;2140;-54
2021/01/13 08:10:00;;;;;;;;;;;19.80;34.60;;;;;;491073;240;1006;-54
2021/01/13 08:12:02;;;;;;;;;;;19.80;34.60;;;;;;491003;240;1206;-54
2021/01/13 08:14:03;;;;;;;;;;;19.70;33.40;;;;;;491085;240;1192;-53
2021/01/13 08:16:04;;;;;;;;;;;19.60;34.80;;;;;;491056;240;1292;-54
2021/01/13 08:18:12;;;;;;;;;;;19.60;34.70;;;;;;491028;240;1128;-53
2021/01/13 08:20:07;;;;;;;;;;;19.60;34.80;;;;;;490963;241;2319;-54
2021/01/13 08:22:08;;;;;;;;;;;19.60;34.90;;;;;;490937;240;1440;-54
2021/01/13 08:24:14;;;;;;;;;;;19.50;34.90;;;;;;490948;240;1144;-54
2021/01/13 08:26:11;;;;;;;;;;;19.50;35.00;;;;;;490914;241;1306;-54
2021/01/13 08:28:12;;;;;;;;;;;19.50;35.00;;;;;;490849;240;2156;-54
2021/01/13 08:30:13;;;;;;;;;;;19.40;35.00;;;;;;490837;240;1247;-54
2021/01/13 08:32:15;;;;;;;;;;;19.40;35.10;;;;;;490743;240;1180;-54
2021/01/13 08:34:16;;;;;;;;;;;19.40;35.10;;;;;;490731;240;1184;-54
2021/01/13 08:36:18;;;;;;;;;;;19.30;33.80;;;;;;490938;240;1058;-54
2021/01/13 08:38:19;;;;;;;;;;;19.30;35.20;;;;;;490887;240;1024;-53
2021/01/13 08:40:20;;;;;;;;;;;19.30;35.20;;;;;;491075;240;1087;-54
2021/01/13 08:42:22;;;;;;;;;;;19.30;34.00;;;;;;490995;240;1339;-54
2021/01/13 08:44:23;;;;;;;;;;;19.30;35.30;;;;;;490995;240;1171;-54
2021/01/13 08:46:24;;;;;;;;;;;19.20;35.30;;;;;;490934;240;1077;-53
2021/01/13 08:48:26;;;;;;;;;;;19.20;34.10;;;;;;490967;240;2185;-54
2021/01/13 08:50:27;;;;;;;;;;;19.10;35.40;;;;;;490908;240;1081;-54
2021/01/13 08:52:28;;;;;;;;;;;19.10;35.40;;;;;;490797;240;1184;-54
2021/01/13 08:54:30;;;;;;;;;;;19.10;35.40;;;;;;491062;240;1118;-54
2021/01/13 08:56:31;;;;;;;;;;;19.10;35.50;;;;;;491003;240;1029;-53
2021/01/13 08:58:33;;;;;;;;;;;19.10;35.50;;;;;;490851;240;1252;-53
2021/01/13 09:00:33;;;;;;;;;;;19.10;35.50;;;;;;491023;240;1182;-53
2021/01/13 09:02:35;;;;;;;;;;;19.00;35.50;;;;;;491028;240;1332;-54
2021/01/13 09:04:36;;;;;;;;;;;19.00;35.50;;;;;;490915;240;1068;-54
2021/01/13 09:06:37;;;;;;;;;;;19.00;35.60;;;;;;490875;240;1072;-53
2021/01/13 09:08:39;;;;;;;;;;;19.00;35.60;;;;;;490829;240;2149;-54
2021/01/13 09:10:40;;;;;;;;;;;19.00;35.60;;;;;;490818;240;1126;-54
2021/01/13 09:12:41;;;;;;;;;;;18.90;35.60;;;;;;490777;240;1157;-54
2021/01/13 09:14:42;;;;;;;;;;;18.90;35.60;;;;;;490920;240;1197;-54
2021/01/13 09:16:44;;;;;;;;;;;18.90;35.70;;;;;;490923;240;1128;-54
2021/01/13 09:18:45;;;;;;;;;;;18.90;35.70;;;;;;490853;240;1195;-54
2021/01/13 09:20:46;;;;;;;;;;;18.90;35.70;;;;;;490827;240;1060;-54
2021/01/13 09:22:48;;;;;;;;;;;18.90;35.70;;;;;;490736;240;1225;-54
2021/01/13 09:24:49;;;;;;;;;;;18.90;35.70;;;;;;490755;240;1053;-54
2021/01/13 09:26:51;;;;;;;;;;;18.80;35.70;;;;;;490792;240;1019;-54
2021/01/13 09:28:52;;;;;;;;;;;18.80;35.80;;;;;;490791;240;2141;-53
2021/01/13 09:30:53;;;;;;;;;;;18.80;35.70;;;;;;490916;240;1316;-54
2021/01/13 09:32:55;;;;;;;;;;;18.80;35.80;;;;;;491206;240;1044;-53
2021/01/13 09:34:56;;;;;;;;;;;18.80;35.80;;;;;;490751;240;1070;-54
2021/01/13 09:36:58;;;;;;;;;;;18.80;35.80;;;;;;490975;240;1219;-54
2021/01/13 09:38:59;;;;;;;;;;;18.80;35.90;;;;;;490805;240;1062;-54
2021/01/13 09:41:01;;;;;;;;;;;18.80;35.90;;;;;;490771;240;1164;-54
2021/01/13 09:43:02;;;;;;;;;;;18.70;35.80;;;;;;490822;240;1152;-54
2021/01/13 09:45:03;;;;;;;;;;;18.70;35.90;;;;;;490856;240;1324;-53
2021/01/13 09:47:04;;;;;;;;;;;18.70;35.90;;;;;;491091;240;1045;-54
2021/01/13 09:49:05;;;;;;;;;;;18.70;35.90;;;;;;490861;240;2179;-54
2021/01/13 09:51:07;;;;;;;;;;;18.70;35.90;;;;;;490931;240;1095;-53
2021/01/13 09:53:08;;;;;;;;;;;18.70;35.90;;;;;;490882;240;1103;-54
2021/01/13 09:55:09;;;;;;;;;;;18.70;34.60;;;;;;490686;240;1036;-54
2021/01/13 09:57:11;;;;;;;;;;;18.70;35.90;;;;;;490826;240;1204;-53
2021/01/13 09:59:12;;;;;;;;;;;18.70;35.90;;;;;;490823;240;1098;-54
2021/01/13 10:01:13;;;;;;;;;;;18.60;35.90;;;;;;490677;240;1113;-53
2021/01/13 10:03:14;;;;;;;;;;;18.70;35.90;;;;;;490793;240;1069;-54
2021/01/13 10:05:16;;;;;;;;;;;18.70;34.70;;;;;;490749;240;1042;-54
2021/01/13 10:07:17;;;;;;;;;;;18.60;35.90;;;;;;490657;240;1223;-53
2021/01/13 10:09:18;;;;;;;;;;;18.60;34.70;;;;;;490881;240;2133;-54
2021/01/13 10:11:19;;;;;;;;;;;18.60;35.90;;;;;;490903;240;1103;-54
2021/01/13 10:13:21;;;;;;;;;;;18.60;35.90;;;;;;490932;240;1332;-53
2021/01/13 10:15:22;;;;;;;;;;;18.60;35.90;;;;;;490845;240;1177;-54
2021/01/13 10:17:23;;;;;;;;;;;18.60;36.00;;;;;;490851;240;1085;-54
2021/01/13 10:19:25;;;;;;;;;;;18.60;36.00;;;;;;491027;240;1121;-53
2021/01/13 10:21:26;;;;;;;;;;;18.60;36.00;;;;;;491031;240;1056;-54
2021/01/13 10:23:27;;;;;;;;;;;18.60;36.00;;;;;;491014;240;1251;-54
2021/01/13 10:25:29;;;;;;;;;;;18.60;36.00;;;;;;490877;240;1093;-54
2021/01/13 10:27:30;;;;;;;;;;;18.60;35.90;;;;;;490788;240;1057;-54
2021/01/13 10:29:31;;;;;;;;;;;18.60;36.00;;;;;;490803;240;2184;-54
2021/01/13 10:31:33;;;;;;;;;;;18.60;34.70;;;;;;490772;240;1219;-54
2021/01/13 10:33:34;;;;;;;;;;;18.60;36.00;;;;;;490847;240;1052;-53
2021/01/13 10:35:35;;;;;;;;;;;18.50;36.00;;;;;;490889;240;1102;-54
2021/01/13 10:37:37;;;;;;;;;;;18.50;36.00;;;;;;490928;240;1363;-53
2021/01/13 10:39:38;;;;;;;;;;;18.50;36.00;;;;;;490930;240;1290;-54
2021/01/13 10:41:39;;;;;;;;;;;18.50;36.00;;;;;;490880;240;1124;-54
2021/01/13 10:43:40;;;;;;;;;;;18.50;36.00;;;;;;490886;240;1234;-53
2021/01/13 10:45:42;;;;;;;;;;;18.50;34.60;;;;;;490768;240;1189;-54
2021/01/13 10:47:43;;;;;;;;;;;18.50;36.00;;;;;;490812;240;1231;-53
2021/01/13 10:49:46;;;;;;;;;;;18.50;36.00;;;;;;491529;240;2172;-54
2021/01/13 10:51:46;;;;;;;;;;;18.50;36.00;;;;;;490781;241;2161;-54
2021/01/13 10:53:47;;;;;;;;;;;18.50;36.00;;;;;;490847;240;1220;-54
2021/01/13 10:55:48;;;;;;;;;;;18.50;36.00;;;;;;490586;240;1285;-53
2021/01/13 10:57:49;;;;;;;;;;;18.50;36.00;;;;;;490702;240;1137;-53
2021/01/13 10:59:51;;;;;;;;;;;18.50;36.00;;;;;;490887;240;1044;-54
2021/01/13 11:01:52;;;;;;;;;;;18.50;36.00;;;;;;490971;240;1206;-54
2021/01/13 11:03:53;;;;;;;;;;;18.50;36.00;;;;;;490814;240;1283;-54
2021/01/13 11:05:54;;;;;;;;;;;18.50;36.00;;;;;;490914;240;1118;-53
2021/01/13 11:07:57;;;;;;;;;;;18.50;36.00;;;;;;490982;240;2180;-53
2021/01/13 11:09:58;;;;;;;;;;;18.50;36.00;;;;;;490738;241;1098;-53
2021/01/13 11:11:59;;;;;;;;;;;18.50;36.00;;;;;;490656;240;1241;-53
2021/01/13 11:14:00;;;;;;;;;;;18.50;36.00;;;;;;490774;240;1061;-53
2021/01/13 11:16:02;;;;;;;;;;;18.50;36.00;;;;;;490681;240;1162;-53
2021/01/13 11:18:03;;;;;;;;;;;18.50;34.70;;;;;;490710;240;1325;-53
2021/01/13 11:20:04;;;;;;;;;;;18.40;36.00;;;;;;490979;240;1069;-54
2021/01/13 11:22:05;;;;;;;;;;;18.40;36.00;;;;;;490913;240;1206;-53
2021/01/13 11:24:07;;;;;;;;;;;18.40;36.00;;;;;;490853;240;1043;-53
2021/01/13 11:26:08;;;;;;;;;;;18.40;34.70;;;;;;490648;240;1213;-53
2021/01/13 11:28:10;;;;;;;;;;;18.40;36.00;;;;;;490763;240;2144;-53
2021/01/13 11:30:11;;;;;;;;;;;18.40;36.00;;;;;;490968;240;1977;-54
2021/01/13 11:32:13;;;;;;;;;;;18.40;36.00;;;;;;490901;240;1240;-53
2021/01/13 11:34:14;;;;;;;;;;;18.40;36.00;;;;;;490915;240;1179;-54
2021/01/13 11:36:15;;;;;;;;;;;18.40;34.70;;;;;;490969;240;1077;-53
2021/01/13 11:38:17;;;;;;;;;;;18.40;36.00;;;;;;490892;240;1173;-53
2021/01/13 11:40:18;;;;;;;;;;;18.40;36.00;;;;;;490962;240;1078;-54
2021/01/13 11:42:19;;;;;;;;;;;18.40;36.00;;;;;;491039;240;1291;-53
2021/01/13 11:44:21;;;;;;;;;;;18.40;36.00;;;;;;490984;240;1067;-53
2021/01/13 11:46:22;;;;;;;;;;;18.40;36.00;;;;;;490901;240;1169;-54
2021/01/13 11:48:23;;;;;;;;;;;18.40;36.00;;;;;;490839;240;2144;-54
2021/01/13 11:50:25;;;;;;;;;;;18.40;36.10;;;;;;490978;240;1141;-54
2021/01/13 11:52:26;;;;;;;;;;;18.40;36.10;;;;;;491035;240;1217;-54
2021/01/13 11:54:27;;;;;;;;;;;18.40;36.00;;;;;;490966;240;1084;-53
2021/01/13 11:56:29;;;;;;;;;;;18.40;35.90;;;;;;490986;240;1143;-54